»·PEaware :: N171MA 0O2-1L1

N171MA :: 0O2-1L1

FLIGHT INFORMATION

Flight Status: Arrived
Operator: Privately registered:
United States
More flights under this callsign
Pilot: Tim M. (868)
Aircraft: CIRRUS SR-22
(SR22)
More flights by this aircraft type
Origin: 0O2 Baker
United States
Destination: 1L1 Lincoln Co
United States
More flights between these airports :: More routes between these airports
Route:
File this flight plan on PilotEdge
Remarks:
Altitude:
(Current/Filed)
7,500ft
Speed:
(Current/Filed)
176kts
Departed: 08-Sep-20 07:13 PM
Arrived: 08-Sep-20 08:34 PM
Distance/Time
Traveled:
170nm/1:21
Distance/Time
To Go:
Arrived

Flight Plot

Page will automatically refresh every two minutes.


Map Options




Map Legend


Flown Route
Filed Route
Departure Airport
Arrival Airport
Navaid (VOR, NDB)
Fix

Horizontal Profiles

Position Reports

Time Latitude Longitude Heading Altitude Ground
Speed
08-Sep-20 19:04 35.287642 -116.081367 74 925ft 0kts
08-Sep-20 19:05 35.287642 -116.081367 74 925ft 0kts
08-Sep-20 19:06 35.287642 -116.081367 74 925ft 0kts
08-Sep-20 19:07 35.287640 -116.081376 74 925ft 0kts
08-Sep-20 19:08 35.287618 -116.081472 74 925ft 0kts
08-Sep-20 19:09 35.286824 -116.081526 177 923ft 13kts
08-Sep-20 19:10 35.282262 -116.080078 215 927ft 1kts
08-Sep-20 19:11 35.282282 -116.080174 340 927ft 0kts
08-Sep-20 19:12 35.291589 -116.083086 347 1045ft 90kts
08-Sep-20 19:13 35.317474 -116.069421 38 2212ft 107kts
08-Sep-20 19:14 35.342107 -116.047700 33 3391ft 112kts
08-Sep-20 19:15 35.371100 -116.028340 19 4341ft 135kts
08-Sep-20 19:16 35.402777 -116.002299 68 5192ft 146kts
08-Sep-20 19:17 35.392892 -115.957827 68 5934ft 151kts
08-Sep-20 19:18 35.428415 -115.927703 27 6286ft 163kts
08-Sep-20 19:19 35.466284 -115.908027 23 7107ft 137kts
08-Sep-20 19:20 35.499907 -115.884064 24 7470ft 150kts
08-Sep-20 19:21 35.537635 -115.854890 43 7530ft 171kts
08-Sep-20 19:22 35.571333 -115.815075 45 7539ft 165kts
08-Sep-20 19:23 35.603757 -115.774456 46 7522ft 166kts
08-Sep-20 19:24 35.635183 -115.732858 47 7553ft 164kts
08-Sep-20 19:25 35.666301 -115.691932 46 7571ft 168kts
08-Sep-20 19:26 35.698690 -115.650415 45 7551ft 166kts
08-Sep-20 19:27 35.730654 -115.609621 46 7548ft 168kts
08-Sep-20 19:28 35.761163 -115.566998 52 7537ft 170kts
08-Sep-20 19:29 35.792613 -115.523382 43 7312ft 170kts
08-Sep-20 19:30 35.826482 -115.485130 42 7282ft 161kts
08-Sep-20 19:31 35.860023 -115.448336 40 7292ft 162kts
08-Sep-20 19:32 35.894584 -115.412115 36 7272ft 163kts
08-Sep-20 19:33 35.930396 -115.379010 38 7344ft 161kts
08-Sep-20 19:34 35.962327 -115.339867 52 7307ft 164kts
08-Sep-20 19:35 35.991999 -115.297527 47 7289ft 162kts
08-Sep-20 19:36 36.021399 -115.258144 47 7295ft 162kts
08-Sep-20 19:37 36.049705 -115.220237 47 7301ft 162kts
08-Sep-20 19:38 36.080331 -115.179172 47 7310ft 162kts
08-Sep-20 19:39 36.113293 -115.141239 34 7316ft 163kts
08-Sep-20 19:40 36.150772 -115.109728 34 7325ft 163kts
08-Sep-20 19:41 36.187860 -115.077664 35 7332ft 163kts
08-Sep-20 19:42 36.224885 -115.045092 35 7338ft 163kts
08-Sep-20 19:43 36.257914 -115.007061 55 7345ft 163kts
08-Sep-20 19:44 36.281785 -114.959097 60 7361ft 162kts
08-Sep-20 19:45 36.311358 -114.917564 23 7401ft 162kts
08-Sep-20 19:46 36.356705 -114.915388 359 7352ft 164kts
08-Sep-20 19:47 36.401896 -114.910112 4 7353ft 163kts
08-Sep-20 19:48 36.447026 -114.908075 0 7387ft 162kts
08-Sep-20 19:49 36.492453 -114.908705 357 7385ft 163kts
08-Sep-20 19:50 36.537884 -114.910109 351 7356ft 164kts
08-Sep-20 19:51 36.582508 -114.919201 351 7405ft 162kts
08-Sep-20 19:52 36.626545 -114.930439 345 7442ft 162kts
08-Sep-20 19:53 36.670726 -114.941922 352 7402ft 165kts
08-Sep-20 19:54 36.715905 -114.944818 357 7482ft 158kts
08-Sep-20 19:55 36.759909 -114.955614 349 7442ft 164kts
08-Sep-20 19:56 36.804829 -114.965049 343 7367ft 166kts
08-Sep-20 19:57 36.848714 -114.979562 347 7403ft 161kts
08-Sep-20 19:58 36.892427 -114.992547 345 7399ft 164kts
08-Sep-20 19:59 36.936477 -115.006637 344 7389ft 163kts
08-Sep-20 20:00 36.979442 -115.023510 341 7429ft 161kts
08-Sep-20 20:02 37.019702 -115.034694 352 8245ft 144kts
08-Sep-20 20:03 37.060959 -115.042490 347 8521ft 152kts
08-Sep-20 20:04 37.103228 -115.055892 345 8508ft 158kts
08-Sep-20 20:05 37.146029 -115.068665 348 8543ft 158kts
08-Sep-20 20:06 37.189144 -115.081638 343 8483ft 160kts
08-Sep-20 20:07 37.231928 -115.095076 342 8473ft 160kts
08-Sep-20 20:08 37.274118 -115.111298 342 8470ft 159kts
08-Sep-20 20:09 37.316341 -115.128779 337 8402ft 162kts
08-Sep-20 20:10 37.356671 -115.149452 339 8549ft 156kts
08-Sep-20 20:11 37.399007 -115.166332 346 8481ft 159kts
08-Sep-20 20:12 37.441748 -115.176529 349 8586ft 157kts
08-Sep-20 20:13 37.485712 -115.183101 353 8579ft 158kts
08-Sep-20 20:14 37.530315 -115.187338 356 8558ft 160kts
08-Sep-20 20:14 37.566005 -115.180440 50 8153ft 179kts
08-Sep-20 20:16 37.589930 -115.119655 66 7558ft 164kts
08-Sep-20 20:17 37.608779 -115.069265 64 7557ft 156kts
08-Sep-20 20:17 37.624875 -115.027836 64 7526ft 158kts
08-Sep-20 20:19 37.647558 -114.970813 65 7603ft 158kts
08-Sep-20 20:20 37.665933 -114.919638 66 7539ft 159kts
08-Sep-20 20:20 37.681306 -114.877778 67 7547ft 158kts
08-Sep-20 20:21 37.699779 -114.827295 59 7506ft 159kts
08-Sep-20 20:23 37.724282 -114.771754 62 7608ft 156kts
08-Sep-20 20:23 37.739375 -114.730190 69 7661ft 155kts
08-Sep-20 20:24 37.755253 -114.677863 70 7527ft 161kts
08-Sep-20 20:25 37.771483 -114.626208 67 7384ft 160kts
08-Sep-20 20:26 37.789431 -114.578565 65 7005ft 143kts
08-Sep-20 20:27 37.794872 -114.527398 93 6843ft 154kts
08-Sep-20 20:28 37.790898 -114.471698 112 6873ft 164kts
08-Sep-20 20:29 37.783560 -114.418449 66 6786ft 163kts
08-Sep-20 20:30 37.775472 -114.370585 186 6387ft 142kts
08-Sep-20 20:31 37.786964 -114.402296 352 5832ft 118kts
08-Sep-20 20:32 37.806229 -114.414812 251 5373ft 89kts
08-Sep-20 20:33 37.786394 -114.419938 182 4812ft 39kts
08-Sep-20 20:34 37.791468 -114.419807 2 4833ft 25kts
08-Sep-20 20:35 37.792296 -114.419252 94 4834ft 9kts
08-Sep-20 20:36 37.791737 -114.418426 90 4833ft 0kts
08-Sep-20 20:37 37.791737 -114.418426 90 4833ft 0kts

Navigation Log

Ident Type
Flight plan parsing failed, navigation log unavailable